This demonstration page uses our WeatherBlox Daily Observations layout. Learn more.

38.88101, -77.10428

Hourly Observations for April 16, 2020

Temp ( °F °C ) Dew Point ( °F °C ) Humidity (%) Winds ( mph kmh ) Pressure ( in mb ) Visibility ( mi km ) Precip ( " mm )
12:52 am 00:52 Clear 45 7.2 32 0 61 61 SSW 9 15 30.04 1017 10 16.0934 0 0
1:52 am 01:52 Partly Cloudy 46 7.8 30 -1.1 54 54 SW 13 20 30.05 1018 10 16.0934 0 0
2:52 am 02:52 Mostly Cloudy 44 6.7 30 -1.1 58 58 SW 8 13 30.06 1018 10 16.0934 0 0
3:52 am 03:52 Cloudy 45 7.2 30 -1.1 56 56 NNW 9 15 30.09 1019 10 16.0934 0 0
4:52 am 04:52 Mostly Clear 43 6.1 31 -0.6 63 63 NW 7 11 30.11 1020 10 16.0934 0 0
5:52 am 05:52 Mostly Clear 43 6.1 29 -1.7 58 58 NW 10 17 30.12 1020 10 16.0934 0 0
6:52 am 06:52 Mostly Sunny 42 5.6 26 -3.3 53 53 NW 14 22 30.15 1021 10 16.0934 0 0
7:52 am 07:52 Mostly Sunny 44 6.7 24 -4.4 45 45 NW 15 24 30.18 1022 10 16.0934 0 0
8:52 am 08:52 Mostly Sunny 47 8.3 25 -3.9 42 42 WNW 15 24 30.2 1023 10 16.0934 0 0
9:52 am 09:52 Partly Cloudy 47 8.3 27 -2.8 46 46 WNW 10 17 30.21 1023 10 16.0934 0 0
10:52 am 10:52 Mostly Cloudy 47 8.3 27 -2.8 46 46 WNW 7 11 30.22 1023 10 16.0934 0 0
11:52 am 11:52 Partly Cloudy 49 9.4 22 -5.6 35 35 WNW 13 20 30.22 1023 10 16.0934 0 0
12:52 pm 12:52 Partly Cloudy 51 10.6 23 -5 33 33 W 9 15 30.2 1023 10 16.0934 0 0
1:52 pm 13:52 Partly Cloudy 53 11.7 22 -5.6 30 30 W 18 30 30.19 1022 10 16.0934 0 0
2:52 pm 14:52 Mostly Sunny 53 11.7 22 -5.6 30 30 WNW 12 19 30.2 1023 10 16.0934 0 0
3:52 pm 15:52 Mostly Sunny 53 11.7 20 -6.7 27 27 WNW 15 24 30.19 1022 10 16.0934 0 0
4:52 pm 16:52 Mostly Sunny 54 12.2 20 -6.7 26 26 NW 20 31 30.19 1022 10 16.0934 0 0
5:52 pm 17:52 Mostly Sunny 53 11.7 20 -6.7 27 27 NNW 21 33 30.2 1023 10 16.0934 0 0
6:52 pm 18:52 Sunny 51 10.6 19 -7.2 28 28 NW 13 20 30.21 1023 10 16.0934 0 0
7:52 pm 19:52 Clear 48 8.9 20 -6.7 33 33 NNW 9 15 30.21 1023 10 16.0934 0 0
8:52 pm 20:52 Clear 47 8.3 21 -6.1 36 36 N 12 19 30.24 1024 10 16.0934 0 0
9:52 pm 21:52 Clear 44 6.7 22 -5.6 41 41 N 9 15 30.27 1025 10 16.0934 0 0
10:52 pm 22:52 Clear 45 7.2 21 -6.1 39 39 NE 8 13 30.28 1026 10 16.0934 0 0
11:52 pm 23:52 Clear 44 6.7 23 -5 43 43 E 3 6 30.3 1026 10 16.0934 0 0

Powered by AerisWeather